Time;durP1;ratioP1;P1;durP2;ratioP2;P2;SDS_P1;SDS_P2;PMS_P1;PMS_P2;Temp;Humidity;BMP_temperature;BMP_pressure;BME280_temperature;BME280_humidity;BME280_pressure;Samples;Min_cycle;Max_cycle;Signal;HPM_P1;HPM_P2
2024/01/24 00:01:57;;;;;;;31.05;14.95;;;9.70;99.90;;;;;;4955434;28;20032;-72
2024/01/24 00:04:22;;;;;;;29.65;14.77;;;9.70;99.90;;;;;;4955053;28;20056;-72
2024/01/24 00:06:49;;;;;;;26.80;13.73;;;9.80;99.90;;;;;;4954804;28;20032;-72
2024/01/24 00:09:14;;;;;;;28.48;13.10;;;9.80;99.90;;;;;;4937460;28;20035;-73
2024/01/24 00:11:40;;;;;;;28.45;13.13;;;9.90;99.90;;;;;;4935971;29;20058;-72
2024/01/24 00:14:05;;;;;;;30.98;16.38;;;9.90;99.90;;;;;;4954859;28;20055;-75
2024/01/24 00:16:31;;;;;;;26.48;13.63;;;9.90;99.90;;;;;;4938038;29;20060;-75
2024/01/24 00:18:57;;;;;;;25.65;13.60;;;10.00;99.90;;;;;;4955085;28;20035;-75
2024/01/24 00:21:23;;;;;;;31.48;15.30;;;10.00;99.90;;;;;;4937670;29;20070;-73
2024/01/24 00:23:49;;;;;;;35.13;13.57;;;10.10;99.90;;;;;;4952411;28;20059;-73
2024/01/24 00:26:14;;;;;;;28.42;14.98;;;10.10;99.90;;;;;;4953189;29;20036;-74
2024/01/24 00:28:40;;;;;;;27.83;15.35;;;10.10;99.90;;;;;;4955081;28;20054;-75
2024/01/24 00:31:05;;;;;;;21.50;10.18;;;10.10;99.90;;;;;;4937208;28;20077;-74
2024/01/24 00:33:32;;;;;;;22.48;12.05;;;10.20;99.90;;;;;;4954958;28;20075;-75
2024/01/24 00:35:57;;;;;;;24.65;12.93;;;10.20;99.90;;;;;;4955279;28;20024;-75
2024/01/24 00:38:23;;;;;;;28.65;11.27;;;10.30;99.90;;;;;;4955097;28;20024;-76
2024/01/24 00:40:48;;;;;;;23.35;12.52;;;10.30;99.90;;;;;;4954870;28;20042;-73
2024/01/24 00:43:14;;;;;;;21.27;11.40;;;10.30;99.90;;;;;;4955210;28;20505;-76
2024/01/24 00:45:40;;;;;;;25.50;11.85;;;10.30;99.90;;;;;;4954833;29;20036;-77
2024/01/24 00:48:06;;;;;;;30.27;13.57;;;10.30;99.90;;;;;;4936662;29;20027;-73
2024/01/24 00:50:32;;;;;;;24.70;12.35;;;10.40;99.90;;;;;;4955134;28;20027;-74
2024/01/24 00:53:03;;;;;;;27.60;12.45;;;10.40;99.90;;;;;;4954648;28;20106;-71
2024/01/24 00:55:30;;;;;;;22.70;11.10;;;10.40;99.90;;;;;;4954470;29;20034;-71
2024/01/24 00:57:56;;;;;;;23.45;11.75;;;10.50;99.90;;;;;;4954731;28;20050;-74
2024/01/24 01:00:22;;;;;;;26.05;11.40;;;10.50;99.90;;;;;;4952780;29;20096;-70
2024/01/24 01:02:48;;;;;;;23.58;10.82;;;10.50;99.90;;;;;;4954407;28;20055;-73
2024/01/24 01:05:13;;;;;;;23.45;12.38;;;10.50;99.90;;;;;;4953861;29;20031;-73
2024/01/24 01:07:39;;;;;;;27.08;12.43;;;10.50;99.90;;;;;;4951668;28;20059;-73
2024/01/24 01:10:09;;;;;;;26.05;12.15;;;10.50;99.90;;;;;;4953257;28;20059;-77
2024/01/24 01:12:35;;;;;;;24.98;11.60;;;10.60;99.90;;;;;;4936255;29;20109;-73
2024/01/24 01:15:00;;;;;;;28.23;12.20;;;10.60;99.90;;;;;;4936564;29;20023;-74
2024/01/24 01:17:26;;;;;;;24.13;11.27;;;10.60;99.90;;;;;;4937100;29;20023;-75
2024/01/24 01:19:51;;;;;;;26.20;11.48;;;10.60;99.90;;;;;;4953975;28;20027;-74
2024/01/24 01:22:18;;;;;;;22.95;10.77;;;10.60;99.90;;;;;;4952027;28;20571;-73
2024/01/24 01:24:43;;;;;;;23.20;10.57;;;10.70;99.90;;;;;;4937005;28;20112;-73
2024/01/24 01:27:09;;;;;;;20.95;10.20;;;10.70;99.90;;;;;;4937191;29;20047;-72
2024/01/24 01:29:34;;;;;;;19.20;10.05;;;10.80;99.90;;;;;;4953281;29;20046;-71
2024/01/24 01:32:00;;;;;;;15.32;8.25;;;10.80;99.90;;;;;;4951701;28;20540;-75
2024/01/24 01:34:26;;;;;;;17.67;8.43;;;10.80;99.90;;;;;;4937392;29;20027;-72
2024/01/24 01:36:51;;;;;;;15.55;8.23;;;10.90;99.90;;;;;;4935953;29;20036;-75
2024/01/24 01:39:18;;;;;;;18.20;8.13;;;10.90;99.90;;;;;;4936123;28;20484;-74
2024/01/24 01:41:48;;;;;;;14.95;7.00;;;10.90;99.90;;;;;;4936221;29;20384;-74
2024/01/24 01:44:15;;;;;;;17.13;8.55;;;10.90;99.90;;;;;;4953542;28;20020;-75
2024/01/24 01:46:41;;;;;;;15.48;6.97;;;10.90;99.90;;;;;;4954050;28;20019;-74
2024/01/24 01:49:07;;;;;;;17.85;6.97;;;11.00;99.90;;;;;;4953299;29;20079;-71
2024/01/24 01:51:33;;;;;;;16.60;7.97;;;11.00;99.90;;;;;;4953871;29;20091;-72
2024/01/24 01:53:59;;;;;;;13.52;7.22;;;11.00;99.90;;;;;;4954551;28;20095;-74
2024/01/24 01:56:25;;;;;;;14.52;7.38;;;11.00;99.90;;;;;;4953899;28;20027;-73
2024/01/24 01:58:52;;;;;;;13.27;6.35;;;11.00;99.90;;;;;;4936552;28;20043;-75
2024/01/24 02:01:19;;;;;;;10.05;6.18;;;11.10;99.90;;;;;;4936126;29;20027;-73
2024/01/24 02:03:45;;;;;;;10.27;5.15;;;11.10;99.90;;;;;;4953552;28;20028;-74
2024/01/24 02:06:11;;;;;;;15.73;6.90;;;11.10;99.90;;;;;;4934183;29;20440;-73
2024/01/24 02:08:39;;;;;;;12.40;6.88;;;11.10;99.90;;;;;;4953149;28;20047;-73
2024/01/24 02:11:05;;;;;;;15.73;6.05;;;11.20;99.90;;;;;;4936024;28;20035;-75
2024/01/24 02:13:31;;;;;;;9.73;5.20;;;11.20;99.90;;;;;;4953442;28;20384;-73
2024/01/24 02:16:00;;;;;;;10.27;5.57;;;11.20;99.90;;;;;;4953874;28;20125;-73
2024/01/24 02:18:26;;;;;;;8.93;5.15;;;11.20;99.90;;;;;;4953850;28;20042;-73
2024/01/24 02:20:52;;;;;;;11.68;5.38;;;11.20;99.90;;;;;;4936672;29;20106;-74
2024/01/24 02:23:18;;;;;;;7.78;5.05;;;11.20;99.90;;;;;;4953125;29;20035;-73
2024/01/24 02:25:44;;;;;;;10.70;4.65;;;11.20;99.90;;;;;;4953139;28;20035;-74
2024/01/24 02:28:10;;;;;;;8.02;4.55;;;11.30;99.90;;;;;;4953437;28;20032;-72
2024/01/24 02:30:35;;;;;;;5.28;3.60;;;11.30;99.90;;;;;;4936153;29;20019;-75
2024/01/24 02:33:01;;;;;;;6.72;3.25;;;11.30;99.90;;;;;;4953163;28;20042;-71
2024/01/24 02:35:27;;;;;;;9.45;2.90;;;11.30;99.90;;;;;;4953942;28;20028;-73
2024/01/24 02:37:53;;;;;;;5.95;3.35;;;11.30;99.90;;;;;;4953912;29;20028;-75
2024/01/24 02:40:19;;;;;;;3.60;1.92;;;11.40;99.90;;;;;;4953401;28;20035;-76
2024/01/24 02:42:45;;;;;;;3.72;2.63;;;11.40;99.90;;;;;;4936536;29;20023;-74
2024/01/24 02:45:10;;;;;;;5.70;2.90;;;11.40;99.90;;;;;;4936050;29;20023;-72
2024/01/24 02:47:36;;;;;;;8.02;2.17;;;11.40;99.90;;;;;;4935883;29;20030;-75
2024/01/24 02:50:03;;;;;;;4.40;2.00;;;11.40;99.90;;;;;;4955746;28;20035;-74
2024/01/24 02:52:29;;;;;;;2.90;2.20;;;11.40;99.90;;;;;;4956025;28;20091;-72
2024/01/24 02:54:54;;;;;;;3.47;1.52;;;11.40;99.90;;;;;;4956628;28;21379;-75
2024/01/24 02:57:20;;;;;;;3.85;1.52;;;11.40;99.90;;;;;;4939669;29;20035;-73
2024/01/24 02:59:46;;;;;;;2.33;1.27;;;11.40;99.90;;;;;;4956309;28;20027;-73
2024/01/24 03:02:11;;;;;;;3.50;1.60;;;11.40;99.90;;;;;;4939133;29;20051;-73
2024/01/24 03:04:37;;;;;;;2.78;1.40;;;11.40;99.90;;;;;;4939476;29;20043;-72
2024/01/24 03:07:03;;;;;;;2.40;1.52;;;11.40;99.90;;;;;;4939183;29;20059;-72
2024/01/24 03:09:28;;;;;;;6.03;1.70;;;11.40;99.90;;;;;;4939839;29;20023;-72
2024/01/24 03:11:54;;;;;;;4.65;1.40;;;11.40;99.90;;;;;;4956382;29;20111;-71
2024/01/24 03:14:21;;;;;;;4.43;1.13;;;11.30;99.90;;;;;;4937092;29;20028;-73
2024/01/24 03:16:46;;;;;;;4.95;2.05;;;11.30;99.90;;;;;;4939108;29;20110;-71
2024/01/24 03:19:13;;;;;;;5.38;1.60;;;11.40;99.90;;;;;;4956892;28;20051;-72
2024/01/24 03:21:40;;;;;;;4.80;1.60;;;11.40;99.90;;;;;;4956423;28;20033;-73
2024/01/24 03:24:06;;;;;;;2.83;1.30;;;11.30;99.90;;;;;;4955686;28;20043;-73
2024/01/24 03:26:31;;;;;;;7.35;1.33;;;11.30;99.90;;;;;;4956472;28;20020;-76
2024/01/24 03:28:57;;;;;;;3.92;1.33;;;11.30;99.90;;;;;;4939072;29;20092;-71
2024/01/24 03:31:23;;;;;;;4.10;1.13;;;11.30;99.90;;;;;;4956067;29;20031;-73
2024/01/24 03:33:48;;;;;;;7.75;1.52;;;11.30;99.90;;;;;;4937284;29;20397;-70
2024/01/24 03:36:14;;;;;;;3.25;1.30;;;11.30;99.90;;;;;;4955349;29;20055;-73
2024/01/24 03:38:39;;;;;;;5.30;1.40;;;11.30;99.90;;;;;;4955872;28;20051;-74
2024/01/24 03:41:05;;;;;;;3.97;1.48;;;11.30;99.90;;;;;;4955373;28;20020;-71
2024/01/24 03:43:30;;;;;;;6.30;1.13;;;11.30;99.90;;;;;;4953103;29;20028;-73
2024/01/24 03:45:56;;;;;;;8.18;1.33;;;11.30;99.90;;;;;;4954255;28;20118;-74
2024/01/24 03:48:21;;;;;;;6.93;1.48;;;11.20;99.90;;;;;;4955060;28;20080;-72
2024/01/24 03:50:47;;;;;;;3.20;1.02;;;11.20;99.90;;;;;;4955753;28;20031;-71
2024/01/24 03:53:13;;;;;;;7.30;1.23;;;11.20;99.90;;;;;;4955879;28;20090;-72
2024/01/24 03:55:39;;;;;;;8.55;1.60;;;11.20;99.90;;;;;;4955467;28;20035;-70
2024/01/24 03:58:05;;;;;;;8.82;1.50;;;11.20;99.90;;;;;;4955842;28;20016;-75
2024/01/24 04:00:31;;;;;;;11.13;1.73;;;11.20;99.90;;;;;;4955523;28;20063;-71
2024/01/24 04:02:56;;;;;;;12.38;1.73;;;11.30;99.90;;;;;;4938406;28;20028;-74
2024/01/24 04:05:22;;;;;;;7.82;1.58;;;11.20;99.90;;;;;;4954215;29;20035;-73
2024/01/24 04:07:47;;;;;;;21.45;3.30;;;11.20;99.90;;;;;;4955770;29;20375;-72
2024/01/24 04:10:13;;;;;;;25.52;2.58;;;11.20;99.90;;;;;;4938022;29;20115;-75
2024/01/24 04:12:38;;;;;;;21.27;2.08;;;11.20;99.90;;;;;;4955633;28;21465;-71
2024/01/24 04:15:09;;;;;;;15.15;2.03;;;11.20;99.90;;;;;;4953400;29;20051;-73
2024/01/24 04:17:34;;;;;;;12.85;2.35;;;11.10;99.90;;;;;;4936495;29;20039;-73
2024/01/24 04:20:00;;;;;;;14.32;2.95;;;11.10;99.90;;;;;;4955534;28;20028;-72
2024/01/24 04:22:25;;;;;;;16.95;2.55;;;11.10;99.90;;;;;;4937009;29;20521;-72
2024/01/24 04:24:51;;;;;;;16.17;2.72;;;11.10;99.90;;;;;;4955057;29;20104;-73
2024/01/24 04:27:16;;;;;;;19.10;2.67;;;11.10;99.90;;;;;;4937832;28;20038;-72
2024/01/24 04:29:42;;;;;;;16.45;2.35;;;11.10;99.90;;;;;;4955028;28;20074;-76
2024/01/24 04:32:09;;;;;;;19.40;2.72;;;11.10;99.90;;;;;;4954694;28;20036;-72
2024/01/24 04:34:35;;;;;;;18.45;2.42;;;11.10;99.90;;;;;;4955583;28;20042;-73
2024/01/24 04:37:00;;;;;;;18.70;2.28;;;11.10;99.90;;;;;;4954308;28;20019;-76
2024/01/24 04:39:26;;;;;;;19.05;2.60;;;11.10;99.90;;;;;;4937743;29;20074;-73
2024/01/24 04:41:52;;;;;;;11.60;1.80;;;11.10;99.90;;;;;;4937898;29;20028;-73
2024/01/24 04:44:17;;;;;;;15.35;3.03;;;11.10;99.90;;;;;;4937788;28;20024;-74
2024/01/24 04:46:43;;;;;;;17.25;2.38;;;11.10;99.90;;;;;;4954850;28;20095;-71
2024/01/24 04:49:08;;;;;;;18.10;2.05;;;11.10;99.90;;;;;;4937396;29;20028;-71
2024/01/24 04:51:37;;;;;;;17.50;2.67;;;11.10;99.90;;;;;;4953638;28;20048;-73
2024/01/24 04:54:03;;;;;;;21.27;3.30;;;11.10;99.90;;;;;;4954268;28;20050;-73
2024/01/24 04:56:29;;;;;;;20.95;2.80;;;11.10;99.90;;;;;;4952452;28;20035;-75
2024/01/24 04:58:54;;;;;;;19.00;2.88;;;11.10;99.90;;;;;;4954233;28;20031;-72
2024/01/24 05:01:20;;;;;;;18.13;3.40;;;11.20;99.90;;;;;;4949391;28;20052;-71
2024/01/24 05:03:46;;;;;;;23.08;2.95;;;11.10;99.90;;;;;;4953514;28;20079;-73
2024/01/24 05:06:12;;;;;;;22.52;3.20;;;11.10;99.90;;;;;;4935810;29;20031;-73
2024/01/24 05:08:38;;;;;;;20.05;2.90;;;11.10;99.90;;;;;;4952103;28;20043;-74
2024/01/24 05:11:04;;;;;;;22.65;3.58;;;11.10;99.90;;;;;;4953786;28;20042;-75
2024/01/24 05:13:30;;;;;;;17.85;3.42;;;11.10;99.90;;;;;;4952944;28;20032;-76
2024/01/24 05:15:56;;;;;;;21.73;2.92;;;11.10;99.90;;;;;;4951852;28;20034;-74
2024/01/24 05:18:21;;;;;;;25.90;3.28;;;11.10;99.90;;;;;;4936791;28;20042;-75
2024/01/24 05:20:47;;;;;;;30.17;4.85;;;11.00;99.90;;;;;;4953491;28;20062;-76
2024/01/24 05:23:13;;;;;;;26.58;3.35;;;10.90;99.90;;;;;;4938362;28;20035;-75
2024/01/24 05:25:39;;;;;;;27.58;4.20;;;10.80;99.90;;;;;;4954681;28;20492;-74
2024/01/24 05:28:05;;;;;;;42.00;4.43;;;10.70;99.90;;;;;;4954225;29;20034;-71
2024/01/24 05:30:31;;;;;;;22.52;4.28;;;10.60;99.90;;;;;;4935910;29;20031;-74
2024/01/24 05:32:57;;;;;;;27.23;4.00;;;10.50;99.90;;;;;;4953304;28;20058;-72
2024/01/24 05:35:23;;;;;;;31.58;4.88;;;10.40;99.90;;;;;;4952547;28;20031;-71
2024/01/24 05:37:49;;;;;;;29.75;3.60;;;10.30;99.90;;;;;;4953768;28;20031;-70
2024/01/24 05:40:14;;;;;;;31.35;4.72;;;10.30;99.90;;;;;;4954080;28;20625;-73
2024/01/24 05:42:40;;;;;;;29.27;4.75;;;10.20;99.90;;;;;;4951795;28;20035;-74
2024/01/24 05:45:06;;;;;;;24.60;4.05;;;10.20;99.90;;;;;;4937652;29;20043;-73
2024/01/24 05:47:32;;;;;;;30.38;4.22;;;10.10;99.90;;;;;;4935333;29;20031;-73
2024/01/24 05:49:58;;;;;;;26.17;4.40;;;10.10;99.90;;;;;;4953703;28;20031;-75
2024/01/24 05:52:24;;;;;;;27.30;4.15;;;10.10;99.90;;;;;;4951711;28;20035;-71
2024/01/24 05:54:50;;;;;;;35.95;4.82;;;10.10;99.90;;;;;;4935840;28;20389;-72
2024/01/24 05:57:15;;;;;;;32.13;4.43;;;10.20;99.90;;;;;;4936651;28;20023;-73
2024/01/24 05:59:41;;;;;;;32.42;4.70;;;10.20;99.90;;;;;;4936022;28;20032;-73
2024/01/24 06:02:06;;;;;;;31.45;5.05;;;10.20;99.90;;;;;;4951581;28;20031;-73
2024/01/24 06:04:32;;;;;;;33.80;4.30;;;10.30;99.90;;;;;;4953536;28;20031;-73
2024/01/24 06:07:00;;;;;;;27.10;4.53;;;10.30;99.90;;;;;;4953410;28;20052;-72
2024/01/24 06:09:27;;;;;;;29.70;4.15;;;10.40;99.90;;;;;;4934637;29;20126;-71
2024/01/24 06:11:53;;;;;;;28.10;4.22;;;10.40;99.90;;;;;;4936822;28;20039;-73
2024/01/24 06:14:18;;;;;;;34.75;4.57;;;10.40;99.90;;;;;;4950414;29;20036;-74
2024/01/24 06:16:44;;;;;;;34.75;5.93;;;10.40;99.90;;;;;;4952254;28;20035;-71
2024/01/24 06:19:09;;;;;;;39.30;5.50;;;10.30;99.90;;;;;;4951223;28;20461;-73
2024/01/24 06:21:35;;;;;;;28.85;3.97;;;10.30;99.90;;;;;;4953318;28;20027;-73
2024/01/24 06:24:01;;;;;;;26.85;4.40;;;10.30;99.90;;;;;;4952743;29;20047;-74
2024/01/24 06:26:27;;;;;;;39.53;4.82;;;10.30;99.90;;;;;;4956446;29;20392;-73
2024/01/24 06:28:52;;;;;;;31.33;4.85;;;10.30;99.90;;;;;;4957225;28;20074;-72
2024/01/24 06:31:18;;;;;;;33.70;5.00;;;10.30;99.90;;;;;;4936439;29;20516;-73
2024/01/24 06:33:43;;;;;;;36.65;5.68;;;10.30;99.90;;;;;;4956851;28;20019;-70
2024/01/24 06:36:09;;;;;;;35.78;4.65;;;10.40;99.90;;;;;;4957561;28;20031;-75
2024/01/24 06:38:35;;;;;;;44.05;5.60;;;10.40;99.90;;;;;;4940192;29;20026;-72
2024/01/24 06:41:00;;;;;;;25.75;4.03;;;10.30;99.90;;;;;;4955974;28;20042;-73
2024/01/24 06:43:26;;;;;;;35.38;5.32;;;10.30;99.90;;;;;;4957758;28;20027;-74
2024/01/24 06:45:51;;;;;;;38.03;5.25;;;10.30;99.90;;;;;;4955729;28;20107;-73
2024/01/24 06:48:18;;;;;;;37.08;4.88;;;10.30;99.90;;;;;;4940791;29;20027;-74
2024/01/24 06:50:44;;;;;;;31.27;4.68;;;10.30;99.90;;;;;;4955975;28;20457;-73
2024/01/24 06:53:14;;;;;;;44.60;5.97;;;10.30;99.90;;;;;;4956979;28;20043;-77
2024/01/24 06:55:39;;;;;;;44.35;6.35;;;10.40;99.90;;;;;;4940288;29;20027;-72
2024/01/24 06:58:05;;;;;;;34.72;5.45;;;10.40;99.90;;;;;;4957230;28;20028;-78
2024/01/24 07:00:32;;;;;;;36.65;6.60;;;10.40;99.90;;;;;;4939591;29;20106;-73
2024/01/24 07:02:59;;;;;;;31.85;5.07;;;10.30;99.90;;;;;;4956044;28;20074;-73
2024/01/24 07:05:25;;;;;;;33.83;5.07;;;10.40;99.90;;;;;;4956470;28;21145;-76
2024/01/24 07:07:50;;;;;;;37.42;5.80;;;10.30;99.90;;;;;;4935062;29;20867;-76
2024/01/24 07:10:16;;;;;;;44.53;5.72;;;10.40;99.90;;;;;;4935912;29;20039;-77
2024/01/24 07:12:45;;;;;;;37.72;6.13;;;10.30;99.90;;;;;;4937385;29;20059;-76
2024/01/24 07:15:11;;;;;;;34.58;5.82;;;10.40;99.90;;;;;;4937246;29;20017;-74
2024/01/24 07:17:37;;;;;;;39.28;6.45;;;10.40;99.90;;;;;;4932793;29;20385;-73
2024/01/24 07:20:03;;;;;;;38.63;6.40;;;10.40;99.90;;;;;;4932806;29;20035;-75
2024/01/24 07:22:29;;;;;;;47.58;6.68;;;10.40;99.90;;;;;;4937425;28;20024;-73
2024/01/24 07:24:54;;;;;;;37.58;6.07;;;10.40;99.90;;;;;;4936312;29;20178;-76
2024/01/24 07:27:20;;;;;;;39.08;5.78;;;10.40;99.90;;;;;;4935733;29;20082;-75
2024/01/24 07:29:45;;;;;;;41.42;6.25;;;10.40;99.90;;;;;;4937046;29;20103;-77
2024/01/24 07:32:11;;;;;;;37.05;5.32;;;10.40;99.90;;;;;;4927918;29;20047;-75
2024/01/24 07:34:38;;;;;;;44.97;7.40;;;10.40;99.90;;;;;;4934423;29;20384;-73
2024/01/24 07:37:07;;;;;;;32.50;5.97;;;10.40;99.90;;;;;;4930916;29;20030;-72
2024/01/24 07:39:34;;;;;;;38.78;7.30;;;10.40;99.90;;;;;;4935646;29;20032;-75
2024/01/24 07:41:59;;;;;;;41.08;6.13;;;10.40;99.90;;;;;;4936016;29;20020;-75
2024/01/24 07:44:26;;;;;;;42.83;6.18;;;10.30;99.90;;;;;;4935798;29;20100;-74
2024/01/24 07:46:51;;;;;;;41.00;6.63;;;10.30;99.90;;;;;;4936107;29;20025;-74
2024/01/24 07:49:17;;;;;;;36.05;5.78;;;10.30;99.90;;;;;;4934879;29;20531;-73
2024/01/24 07:51:46;;;;;;;38.78;5.70;;;10.30;99.90;;;;;;4936080;29;20377;-73
2024/01/24 07:54:12;;;;;;;43.58;5.88;;;10.30;99.90;;;;;;4934166;29;20028;-78
2024/01/24 07:56:38;;;;;;;43.60;6.50;;;10.30;99.90;;;;;;4935535;29;20024;-73
2024/01/24 07:59:05;;;;;;;39.28;5.70;;;10.30;99.90;;;;;;4935527;29;20062;-75
2024/01/24 08:01:30;;;;;;;38.42;5.88;;;10.30;99.90;;;;;;4936128;29;20031;-75
2024/01/24 08:03:56;;;;;;;51.58;6.75;;;10.30;99.90;;;;;;4936157;29;20052;-73
2024/01/24 08:06:22;;;;;;;38.40;5.65;;;10.30;99.90;;;;;;4933479;29;20023;-73
2024/01/24 08:08:48;;;;;;;38.63;6.22;;;10.30;99.90;;;;;;4932308;29;20107;-75
2024/01/24 08:11:13;;;;;;;36.00;5.22;;;10.30;99.90;;;;;;4935031;29;20020;-79
2024/01/24 08:13:39;;;;;;;41.28;6.80;;;10.30;99.90;;;;;;4932762;29;20083;-76
2024/01/24 08:16:05;;;;;;;42.38;5.45;;;10.30;99.90;;;;;;4935043;29;20024;-75
2024/01/24 08:18:33;;;;;;;35.20;6.32;;;10.30;99.90;;;;;;4935887;29;20020;-73
2024/01/24 08:20:59;;;;;;;43.75;6.50;;;10.30;99.90;;;;;;4936490;29;20024;-77
2024/01/24 08:23:24;;;;;;;44.38;6.20;;;10.30;99.90;;;;;;4934705;29;20122;-74
2024/01/24 08:25:50;;;;;;;47.20;6.80;;;10.30;99.90;;;;;;4935302;29;20119;-77
2024/01/24 08:28:16;;;;;;;35.33;5.28;;;10.30;99.90;;;;;;4935894;29;20032;-74
2024/01/24 08:30:42;;;;;;;45.75;6.15;;;10.30;99.90;;;;;;4941248;28;20032;-74
2024/01/24 08:33:08;;;;;;;35.53;6.95;;;10.30;99.90;;;;;;4934098;29;20054;-75
2024/01/24 08:35:35;;;;;;;37.15;6.40;;;10.20;99.90;;;;;;4935972;29;20093;-74
2024/01/24 08:38:02;;;;;;;47.95;6.55;;;10.30;99.90;;;;;;4933145;29;20036;-74
2024/01/24 08:40:27;;;;;;;44.28;6.63;;;10.20;99.90;;;;;;4933780;29;20011;-72
2024/01/24 08:42:53;;;;;;;43.42;5.68;;;10.30;99.90;;;;;;4932535;29;20025;-76
2024/01/24 08:45:18;;;;;;;27.85;5.57;;;10.30;99.90;;;;;;4934188;29;20407;-77
2024/01/24 08:47:44;;;;;;;39.05;5.68;;;10.30;99.90;;;;;;4928926;29;20038;-76
2024/01/24 08:50:10;;;;;;;39.97;6.35;;;10.40;99.90;;;;;;4927167;29;20028;-74
2024/01/24 08:52:36;;;;;;;37.75;5.20;;;10.40;99.90;;;;;;4923641;29;20046;-73
2024/01/24 08:55:02;;;;;;;37.78;5.93;;;10.40;99.90;;;;;;4927772;29;20036;-75
2024/01/24 08:57:27;;;;;;;31.48;6.00;;;10.40;99.90;;;;;;4931441;29;20031;-74
2024/01/24 08:59:53;;;;;;;41.25;6.32;;;10.40;99.90;;;;;;4933283;29;20582;-74
2024/01/24 09:02:19;;;;;;;36.25;6.15;;;10.40;99.90;;;;;;4932355;29;20032;-77
2024/01/24 09:04:46;;;;;;;46.72;5.93;;;10.40;99.90;;;;;;4935008;29;20035;-74
2024/01/24 09:07:14;;;;;;;49.55;8.20;;;10.30;99.90;;;;;;4934879;29;20039;-77
2024/01/24 09:09:40;;;;;;;38.92;6.15;;;10.40;99.90;;;;;;4936168;29;20125;-73
2024/01/24 09:12:06;;;;;;;38.20;6.43;;;10.40;99.90;;;;;;4953682;28;20531;-71
2024/01/24 09:14:32;;;;;;;39.33;6.70;;;10.40;99.90;;;;;;4953812;28;20536;-75
2024/01/24 09:17:00;;;;;;;42.60;6.43;;;10.40;99.90;;;;;;4951134;28;20031;-74
2024/01/24 09:19:25;;;;;;;30.35;5.60;;;10.40;99.90;;;;;;4952817;28;20083;-70
2024/01/24 09:21:51;;;;;;;44.80;6.72;;;10.50;99.90;;;;;;4936750;29;20027;-73
2024/01/24 09:24:17;;;;;;;39.47;6.63;;;10.50;99.90;;;;;;4953549;29;20031;-73
2024/01/24 09:26:42;;;;;;;28.42;5.40;;;10.50;99.90;;;;;;4936446;29;20023;-74
2024/01/24 09:29:12;;;;;;;40.58;6.00;;;10.50;99.90;;;;;;4952932;28;20038;-73
2024/01/24 09:31:43;;;;;;;37.03;5.47;;;10.50;99.90;;;;;;4953302;28;20041;-71
2024/01/24 09:34:10;;;;;;;38.38;5.35;;;10.50;99.90;;;;;;4935891;29;20123;-74
2024/01/24 09:36:36;;;;;;;34.58;5.07;;;10.60;99.90;;;;;;4953508;28;20484;-74
2024/01/24 09:39:02;;;;;;;29.65;4.38;;;10.60;99.90;;;;;;4952300;28;20035;-75
2024/01/24 09:41:34;;;;;;;36.30;5.53;;;10.60;99.90;;;;;;4936782;29;20027;-74
2024/01/24 09:44:08;;;;;;;44.83;6.75;;;10.70;99.90;;;;;;4932933;29;20135;-72
2024/01/24 09:46:45;;;;;;;37.47;5.22;;;10.70;99.90;;;;;;4952760;28;20104;-73
2024/01/24 09:49:11;;;;;;;26.63;4.45;;;10.70;99.90;;;;;;4953267;28;20091;-74
2024/01/24 09:51:37;;;;;;;36.42;6.45;;;10.60;99.90;;;;;;4952607;28;20059;-73
2024/01/24 09:54:09;;;;;;;26.95;4.90;;;10.70;99.90;;;;;;4948443;28;20023;-75
2024/01/24 09:56:38;;;;;;;30.20;5.35;;;10.70;99.90;;;;;;4952833;28;20035;-75
2024/01/24 09:59:05;;;;;;;29.38;4.80;;;10.70;99.90;;;;;;4937019;29;20046;-75
2024/01/24 10:01:36;;;;;;;28.98;5.47;;;10.70;99.90;;;;;;4957863;29;20031;-74
2024/01/24 10:04:02;;;;;;;35.65;5.90;;;10.70;99.90;;;;;;4940712;29;20029;-75
2024/01/24 10:06:29;;;;;;;39.05;5.75;;;10.70;99.90;;;;;;4940399;29;20023;-75
2024/01/24 10:08:55;;;;;;;34.80;5.45;;;10.60;99.90;;;;;;4940169;28;20074;-73
2024/01/24 10:11:21;;;;;;;26.10;4.72;;;10.60;99.90;;;;;;4957190;29;20031;-73
2024/01/24 10:13:47;;;;;;;29.90;6.05;;;10.70;99.90;;;;;;4957099;28;20553;-73
2024/01/24 10:16:12;;;;;;;29.77;5.18;;;10.60;99.90;;;;;;4957316;28;20028;-74
2024/01/24 10:18:38;;;;;;;35.50;5.90;;;10.60;99.90;;;;;;4939471;28;20019;-74
2024/01/24 10:21:05;;;;;;;31.63;5.57;;;10.60;99.90;;;;;;4955951;29;20063;-76
2024/01/24 10:23:31;;;;;;;32.90;5.72;;;10.60;99.90;;;;;;4957589;28;20028;-74
2024/01/24 10:26:00;;;;;;;32.60;6.25;;;10.60;99.90;;;;;;4939372;29;20036;-74
2024/01/24 10:28:25;;;;;;;40.15;5.68;;;10.60;99.90;;;;;;4956634;28;20039;-74
2024/01/24 10:30:51;;;;;;;32.25;5.20;;;10.60;99.90;;;;;;4956595;28;20023;-75
2024/01/24 10:33:17;;;;;;;26.98;4.85;;;10.60;99.90;;;;;;4938901;28;20043;-76
2024/01/24 10:35:43;;;;;;;26.42;4.93;;;10.60;99.90;;;;;;4957040;28;20029;-73
2024/01/24 10:38:12;;;;;;;29.17;4.75;;;10.60;99.90;;;;;;4939393;29;20114;-75
2024/01/24 10:40:40;;;;;;;28.20;5.60;;;10.60;99.90;;;;;;4939057;29;20034;-74
2024/01/24 10:43:09;;;;;;;30.15;5.82;;;10.60;99.90;;;;;;4939412;29;20030;-76
2024/01/24 10:45:40;;;;;;;37.10;5.68;;;10.60;99.90;;;;;;4939492;29;20048;-76
2024/01/24 10:48:07;;;;;;;31.95;5.07;;;10.60;99.90;;;;;;4939067;29;20027;-75
2024/01/24 10:50:34;;;;;;;38.17;6.63;;;10.50;99.90;;;;;;4957034;28;20020;-77
2024/01/24 10:53:02;;;;;;;37.63;4.78;;;10.50;99.90;;;;;;4956062;29;20044;-74
2024/01/24 10:55:28;;;;;;;35.88;4.95;;;10.50;99.90;;;;;;4939321;29;20476;-74
2024/01/24 10:57:54;;;;;;;44.17;6.32;;;10.50;99.90;;;;;;4956557;28;20486;-74
2024/01/24 11:00:22;;;;;;;35.22;5.53;;;10.60;99.90;;;;;;4938960;28;20032;-73
2024/01/24 11:02:49;;;;;;;32.08;5.18;;;10.50;99.90;;;;;;4956307;28;20118;-74
2024/01/24 11:05:30;;;;;;;36.60;5.88;;;10.50;99.90;;;;;;4949564;29;20035;-76
2024/01/24 11:08:07;;;;;;;31.88;5.43;;;10.50;99.90;;;;;;4949550;29;20055;-77
2024/01/24 11:10:35;;;;;;;35.85;5.43;;;10.50;99.90;;;;;;4953539;28;20035;-74
2024/01/24 11:13:04;;;;;;;32.88;5.07;;;10.50;99.90;;;;;;4936950;28;20039;-72
2024/01/24 11:15:31;;;;;;;39.08;5.40;;;10.50;99.90;;;;;;4934722;29;20032;-76
2024/01/24 11:18:22;;;;;;;32.58;5.65;;;10.40;99.90;;;;;;4949739;28;20027;-75
2024/01/24 11:20:53;;;;;;;33.30;6.15;;;10.50;99.90;;;;;;4955904;28;20036;-75
2024/01/24 11:23:45;;;;;;;35.47;6.32;;;10.50;99.90;;;;;;4937810;28;20091;-75
2024/01/24 11:26:17;;;;;;;27.92;5.20;;;10.50;99.90;;;;;;4954428;28;20023;-74
2024/01/24 11:28:44;;;;;;;37.67;5.53;;;10.50;99.90;;;;;;4938723;29;20078;-74
2024/01/24 11:31:10;;;;;;;29.75;5.07;;;10.50;99.90;;;;;;4936163;29;20031;-77
2024/01/24 11:33:36;;;;;;;39.63;5.90;;;10.50;99.90;;;;;;4953451;28;20023;-72
2024/01/24 11:36:05;;;;;;;36.92;5.75;;;10.50;99.90;;;;;;4937339;29;20095;-74
2024/01/24 11:38:35;;;;;;;28.50;4.75;;;10.50;99.90;;;;;;4939096;29;20047;-75
2024/01/24 11:41:11;;;;;;;35.95;5.18;;;10.50;99.90;;;;;;4954133;28;20031;-73
2024/01/24 11:43:37;;;;;;;32.55;4.55;;;10.50;99.90;;;;;;4954297;29;20384;-75
2024/01/24 11:46:05;;;;;;;34.38;5.60;;;10.40;99.90;;;;;;4955826;28;20030;-71
2024/01/24 11:48:33;;;;;;;38.50;5.95;;;10.50;99.90;;;;;;4935022;28;20042;-77
2024/01/24 11:51:01;;;;;;;27.88;5.45;;;10.50;99.90;;;;;;4949327;28;20046;-74
2024/01/24 11:53:27;;;;;;;25.15;4.65;;;10.50;99.90;;;;;;4936491;28;20050;-71
2024/01/24 11:55:55;;;;;;;34.78;4.97;;;10.50;99.90;;;;;;4952819;28;20685;-75
2024/01/24 11:58:31;;;;;;;43.03;5.13;;;10.50;99.90;;;;;;4949084;28;20034;-74
2024/01/24 12:01:04;;;;;;;29.67;4.75;;;10.40;99.90;;;;;;4950968;29;20039;-74
2024/01/24 12:03:31;;;;;;;32.53;4.80;;;10.40;99.90;;;;;;4936275;29;20547;-74
2024/01/24 12:05:58;;;;;;;29.40;5.38;;;10.40;99.90;;;;;;4936397;29;20066;-73
2024/01/24 12:08:24;;;;;;;28.00;5.30;;;10.40;99.90;;;;;;4946940;28;20141;-73
2024/01/24 12:10:49;;;;;;;36.03;5.35;;;10.40;99.90;;;;;;4932589;29;20051;-73
2024/01/24 12:13:16;;;;;;;33.80;4.38;;;10.40;99.90;;;;;;4943086;28;20040;-73
2024/01/24 12:15:43;;;;;;;25.38;3.88;;;10.40;99.90;;;;;;4936051;29;20039;-72
2024/01/24 12:18:10;;;;;;;30.98;5.28;;;10.40;99.90;;;;;;4951935;28;20023;-73
2024/01/24 12:20:36;;;;;;;29.52;4.38;;;10.40;99.90;;;;;;4952922;28;20107;-71
2024/01/24 12:23:03;;;;;;;30.60;5.43;;;10.50;99.90;;;;;;4934783;29;20051;-75
2024/01/24 12:25:29;;;;;;;34.15;5.22;;;10.40;99.90;;;;;;4953642;28;20024;-72
2024/01/24 12:27:57;;;;;;;40.65;5.85;;;10.40;99.90;;;;;;4955078;28;20034;-74
2024/01/24 12:30:25;;;;;;;32.42;5.25;;;10.40;99.90;;;;;;4955082;28;20019;-73
2024/01/24 12:32:55;;;;;;;34.33;5.72;;;10.40;99.90;;;;;;4954027;28;20052;-73
2024/01/24 12:35:20;;;;;;;30.52;4.45;;;10.40;99.90;;;;;;4953401;28;20479;-74